createdAt,value
2022-12-18T00:00:14.412Z,-4.56
2022-12-18T00:03:02.845Z,-4.58
2022-12-18T00:05:31.418Z,-4.60
2022-12-18T00:07:59.791Z,-4.61
2022-12-18T00:10:30.561Z,-4.61
2022-12-18T00:12:58.933Z,-4.64
2022-12-18T00:15:27.381Z,-4.65
2022-12-18T00:17:55.753Z,-4.65
2022-12-18T00:20:26.938Z,-4.66
2022-12-18T00:22:56.147Z,-4.68
2022-12-18T00:25:24.774Z,-4.71
2022-12-18T00:27:53.182Z,-4.74
2022-12-18T00:30:22.126Z,-4.77
2022-12-18T00:32:50.532Z,-4.81
2022-12-18T00:35:18.995Z,-4.87
2022-12-18T00:37:47.429Z,-4.92
2022-12-18T00:40:15.938Z,-4.97
2022-12-18T00:42:59.791Z,-5.02
2022-12-18T00:45:30.939Z,-5.08
2022-12-18T00:47:59.396Z,-5.11
2022-12-18T00:50:28.022Z,-5.11
2022-12-18T00:52:56.295Z,-5.08
2022-12-18T00:55:24.675Z,-5.04
2022-12-18T00:57:54.117Z,-5.03
2022-12-18T01:00:23.620Z,-5.03
2022-12-18T01:02:52.454Z,-5.02
2022-12-18T01:05:21.077Z,-5.03
2022-12-18T01:07:49.449Z,-5.01
2022-12-18T01:10:17.844Z,-5.00
2022-12-18T01:12:46.574Z,-4.97
2022-12-18T01:15:16.594Z,-4.95
2022-12-18T01:17:45.065Z,-4.93
2022-12-18T01:20:14.468Z,-4.92
2022-12-18T01:22:42.816Z,-4.94
2022-12-18T01:25:11.347Z,-4.96
2022-12-18T01:27:39.682Z,-4.99
2022-12-18T01:30:08.627Z,-5.00
2022-12-18T01:32:37.147Z,-5.03
2022-12-18T01:35:06.697Z,-5.06
2022-12-18T01:37:35.180Z,-5.10
2022-12-18T01:40:03.848Z,-5.15
2022-12-18T01:42:32.159Z,-5.18
2022-12-18T01:45:28.642Z,-5.22
2022-12-18T01:48:07.778Z,-5.24
2022-12-18T01:50:44.471Z,-5.26
2022-12-18T01:53:16.222Z,-5.28
2022-12-18T01:55:48.559Z,-5.31
2022-12-18T01:58:18.353Z,-5.34
2022-12-18T02:00:47.667Z,-5.33
2022-12-18T02:03:16.717Z,-5.31
2022-12-18T02:06:09.142Z,-5.28
2022-12-18T02:09:03.578Z,-5.29
2022-12-18T02:11:39.291Z,-5.30
2022-12-18T02:14:20.714Z,-5.30
2022-12-18T02:16:52.946Z,-5.31
2022-12-18T02:19:39.025Z,-5.33
2022-12-18T02:22:30.638Z,-5.34
2022-12-18T02:25:24.108Z,-5.33
2022-12-18T02:27:54.400Z,-5.33
2022-12-18T02:30:24.112Z,-5.34
2022-12-18T02:32:55.738Z,-5.36
2022-12-18T02:35:28.879Z,-5.36
2022-12-18T02:37:59.159Z,-5.35
2022-12-18T02:40:29.768Z,-5.37
2022-12-18T02:43:08.223Z,-5.42
2022-12-18T02:45:36.730Z,-5.46
2022-12-18T02:48:05.391Z,-5.48
2022-12-18T02:50:39.555Z,-5.49
2022-12-18T02:53:40.749Z,-5.49
2022-12-18T02:56:25.585Z,-5.52
2022-12-18T02:58:59.936Z,-5.55
2022-12-18T03:02:31.693Z,-5.55
2022-12-18T03:05:16.726Z,-5.61
2022-12-18T03:07:57.198Z,-5.67
2022-12-18T03:10:30.782Z,-5.73
2022-12-18T03:13:10.016Z,-5.79
2022-12-18T03:15:49.439Z,-5.84
2022-12-18T03:18:26.731Z,-5.91
2022-12-18T03:20:59.889Z,-5.99
2022-12-18T03:23:35.314Z,-6.03
2022-12-18T03:26:10.686Z,-6.04
2022-12-18T03:28:45.026Z,-6.03
2022-12-18T03:31:15.434Z,-6.02
2022-12-18T03:33:48.972Z,-6.03
2022-12-18T03:36:17.346Z,-6.07
2022-12-18T03:38:45.746Z,-6.14
2022-12-18T03:41:30.036Z,-6.26
2022-12-18T03:44:17.378Z,-6.42
2022-12-18T03:47:03.363Z,-6.50
2022-12-18T03:49:51.997Z,-6.56
2022-12-18T03:52:29.823Z,-6.59
2022-12-18T03:55:01.136Z,-6.64
2022-12-18T03:57:32.993Z,-6.70
2022-12-18T04:00:09.676Z,-6.73
2022-12-18T04:02:41.515Z,-6.72
2022-12-18T04:05:12.031Z,-6.72
2022-12-18T04:07:41.822Z,-6.71
2022-12-18T04:10:13.370Z,-6.72
2022-12-18T04:12:42.168Z,-6.71
2022-12-18T04:15:11.902Z,-6.75
2022-12-18T04:17:44.042Z,-6.80
2022-12-18T04:20:12.628Z,-6.82
2022-12-18T04:22:40.954Z,-6.85
2022-12-18T04:25:12.699Z,-6.88
2022-12-18T04:27:40.993Z,-6.93
2022-12-18T04:30:09.750Z,-6.99
2022-12-18T04:32:38.231Z,-7.04
2022-12-18T04:35:11.678Z,-7.09
2022-12-18T04:37:40.067Z,-7.17
2022-12-18T04:40:08.861Z,-7.15
2022-12-18T04:42:37.273Z,-7.11
2022-12-18T04:45:06.206Z,-7.11
2022-12-18T04:47:34.617Z,-7.16
2022-12-18T04:50:02.957Z,-7.24
2022-12-18T04:52:32.669Z,-7.22
2022-12-18T04:55:01.138Z,-7.19
2022-12-18T04:57:29.503Z,-7.17
2022-12-18T05:00:04.330Z,-7.17
2022-12-18T05:02:32.860Z,-7.22
2022-12-18T05:05:01.494Z,-7.23
2022-12-18T05:07:29.893Z,-7.28
2022-12-18T05:09:58.254Z,-7.34
2022-12-18T05:12:26.799Z,-7.43
2022-12-18T05:14:55.154Z,-7.51
2022-12-18T05:17:23.507Z,-7.50
2022-12-18T05:19:52.024Z,-7.47
2022-12-18T05:22:20.388Z,-7.47
2022-12-18T05:24:48.783Z,-7.45
2022-12-18T05:27:17.044Z,-7.41
2022-12-18T05:29:45.586Z,-7.35
2022-12-18T05:32:13.903Z,-7.31
2022-12-18T05:34:42.237Z,-7.30
2022-12-18T05:37:10.586Z,-7.28
2022-12-18T05:39:39.011Z,-7.27
2022-12-18T05:42:07.412Z,-7.28
2022-12-18T05:44:35.748Z,-7.28
2022-12-18T05:47:04.152Z,-7.32
2022-12-18T05:49:32.546Z,-7.36
2022-12-18T05:52:00.958Z,-7.39
2022-12-18T05:54:29.922Z,-7.43
2022-12-18T05:56:59.222Z,-7.44
2022-12-18T05:59:27.593Z,-7.45
2022-12-18T06:01:58.107Z,-7.42
2022-12-18T06:04:29.868Z,-7.39
2022-12-18T06:06:58.911Z,-7.39
2022-12-18T06:09:27.338Z,-7.42
2022-12-18T06:11:55.749Z,-7.41
2022-12-18T06:14:24.124Z,-7.41
2022-12-18T06:16:53.691Z,-7.42
2022-12-18T06:19:22.082Z,-7.47
2022-12-18T06:21:50.825Z,-7.48
2022-12-18T06:24:19.222Z,-7.45
2022-12-18T06:26:47.562Z,-7.46
2022-12-18T06:29:15.956Z,-7.47
2022-12-18T06:31:44.278Z,-7.46
2022-12-18T06:34:12.751Z,-7.44
2022-12-18T06:36:41.122Z,-7.45
2022-12-18T06:39:09.541Z,-7.48
2022-12-18T06:41:37.943Z,-7.56
2022-12-18T06:44:07.980Z,-7.62
2022-12-18T06:46:36.171Z,-7.61
2022-12-18T06:49:04.770Z,-7.64
2022-12-18T06:51:33.142Z,-7.67
2022-12-18T06:54:01.723Z,-7.65
2022-12-18T06:56:30.170Z,-7.63
2022-12-18T06:58:58.612Z,-7.65
2022-12-18T07:01:32.871Z,-7.65
2022-12-18T07:04:01.387Z,-7.63
2022-12-18T07:06:29.779Z,-7.61
2022-12-18T07:08:58.149Z,-7.59
2022-12-18T07:11:26.499Z,-7.55
2022-12-18T07:13:55.635Z,-7.49
2022-12-18T07:16:25.552Z,-7.48
2022-12-18T07:18:56.454Z,-7.45
2022-12-18T07:21:26.017Z,-7.50
2022-12-18T07:23:54.540Z,-7.56
2022-12-18T07:26:23.872Z,-7.60
2022-12-18T07:28:55.762Z,-7.58
2022-12-18T07:31:25.968Z,-7.57
2022-12-18T07:33:54.793Z,-7.50
2022-12-18T07:36:23.144Z,-7.47
2022-12-18T07:38:53.754Z,-7.45
2022-12-18T07:41:22.491Z,-7.45
2022-12-18T07:43:50.925Z,-7.48
2022-12-18T07:46:19.889Z,-7.47
2022-12-18T07:48:50.215Z,-7.38
2022-12-18T07:51:19.811Z,-7.31
2022-12-18T07:53:49.618Z,-7.34
2022-12-18T07:56:31.223Z,-7.41
2022-12-18T07:59:00.935Z,-7.45
2022-12-18T08:01:38.698Z,-7.48
2022-12-18T08:04:07.167Z,-7.45
2022-12-18T08:06:35.633Z,-7.38
2022-12-18T08:09:04.142Z,-7.32
2022-12-18T08:11:32.609Z,-7.31
2022-12-18T08:14:01.051Z,-7.29
2022-12-18T08:16:29.675Z,-7.31
2022-12-18T08:18:58.554Z,-7.34
2022-12-18T08:21:29.746Z,-7.29
2022-12-18T08:24:00.629Z,-7.25
2022-12-18T08:26:31.939Z,-7.23
2022-12-18T08:29:01.318Z,-7.22
2022-12-18T08:31:31.828Z,-7.25
2022-12-18T08:34:00.458Z,-7.23
2022-12-18T08:36:28.940Z,-7.17
2022-12-18T08:38:58.082Z,-7.06
2022-12-18T08:41:27.265Z,-6.96
2022-12-18T08:44:14.624Z,-6.91
2022-12-18T08:46:44.722Z,-6.89
2022-12-18T08:49:13.350Z,-6.85
2022-12-18T08:51:41.698Z,-6.79
2022-12-18T08:54:13.096Z,-6.73
2022-12-18T08:56:41.704Z,-6.74
2022-12-18T08:59:14.456Z,-6.87
2022-12-18T09:01:48.842Z,-6.94
2022-12-18T09:04:17.627Z,-6.93
2022-12-18T09:06:46.124Z,-6.87
2022-12-18T09:09:14.762Z,-6.78
2022-12-18T09:11:43.166Z,-6.79
2022-12-18T09:14:11.857Z,-6.79
2022-12-18T09:16:40.500Z,-6.78
2022-12-18T09:19:08.898Z,-6.72
2022-12-18T09:21:37.629Z,-6.67
2022-12-18T09:24:08.903Z,-6.61
2022-12-18T09:26:38.679Z,-6.52
2022-12-18T09:29:11.040Z,-6.42
2022-12-18T09:31:39.946Z,-6.38
2022-12-18T09:34:08.663Z,-6.49
2022-12-18T09:36:37.098Z,-6.53
2022-12-18T09:39:08.642Z,-6.44
2022-12-18T09:41:54.706Z,-6.38
2022-12-18T09:44:29.514Z,-6.37
2022-12-18T09:47:09.142Z,-6.30
2022-12-18T09:49:44.879Z,-6.19
2022-12-18T09:52:17.729Z,-6.16
2022-12-18T09:54:53.466Z,-6.20
2022-12-18T09:57:24.578Z,-6.26
2022-12-18T10:00:03.491Z,-6.25
2022-12-18T10:02:33.967Z,-6.10
2022-12-18T10:05:06.588Z,-5.96
2022-12-18T10:07:43.784Z,-5.85
2022-12-18T10:10:28.324Z,-5.83
2022-12-18T10:13:18.133Z,-5.75
2022-12-18T10:16:07.920Z,-5.63
2022-12-18T10:18:39.327Z,-5.54
2022-12-18T10:21:47.212Z,-5.49
2022-12-18T10:24:27.287Z,-5.51
2022-12-18T10:27:11.033Z,-5.48
2022-12-18T10:29:39.594Z,-5.44
2022-12-18T10:32:10.474Z,-5.39
2022-12-18T10:34:38.715Z,-5.28
2022-12-18T10:37:16.235Z,-5.19
2022-12-18T10:39:44.955Z,-5.15
2022-12-18T10:42:19.910Z,-5.13
2022-12-18T10:45:03.805Z,-5.13
2022-12-18T10:47:34.829Z,-5.11
2022-12-18T10:50:04.692Z,-5.08
2022-12-18T10:52:33.156Z,-5.04
2022-12-18T10:55:05.542Z,-5.06
2022-12-18T10:57:36.816Z,-5.05
2022-12-18T11:00:37.310Z,-5.02
2022-12-18T11:03:31.451Z,-4.99
2022-12-18T11:06:17.636Z,-4.98
2022-12-18T11:09:18.830Z,-4.94
2022-12-18T11:11:53.556Z,-4.87
2022-12-18T11:14:35.589Z,-4.86
2022-12-18T11:20:02.217Z,-5.09
2022-12-18T11:22:32.147Z,-5.16
2022-12-18T11:28:05.589Z,-5.28
2022-12-18T11:30:36.878Z,-5.30
2022-12-18T11:33:20.684Z,-5.28
2022-12-18T11:36:04.982Z,-5.22
2022-12-18T11:38:39.516Z,-5.18
2022-12-18T11:41:52.289Z,-5.14
2022-12-18T11:44:33.022Z,-5.06
2022-12-18T11:47:15.391Z,-5.03
2022-12-18T11:49:50.556Z,-4.99
2022-12-18T11:52:33.208Z,-5.01
2022-12-18T11:55:09.133Z,-5.02
2022-12-18T11:57:55.732Z,-4.95
2022-12-18T12:00:24.828Z,-4.85
2022-12-18T12:03:05.481Z,-4.87
2022-12-18T12:05:36.617Z,-4.96
2022-12-18T12:08:31.259Z,-5.02
2022-12-18T12:11:24.759Z,-5.04
2022-12-18T12:13:58.750Z,-5.03
2022-12-18T12:16:48.586Z,-5.08
2022-12-18T12:19:58.715Z,-5.11
2022-12-18T12:22:36.974Z,-5.12
2022-12-18T12:25:19.599Z,-5.14
2022-12-18T12:27:53.887Z,-5.12
2022-12-18T12:30:30.822Z,-5.02
2022-12-18T12:33:10.485Z,-4.90
2022-12-18T12:36:07.721Z,-4.82
2022-12-18T12:38:51.422Z,-4.79
2022-12-18T12:41:44.345Z,-4.72
2022-12-18T12:44:36.122Z,-4.68
2022-12-18T12:47:15.126Z,-4.64
2022-12-18T12:49:51.646Z,-4.59
2022-12-18T12:52:52.751Z,-4.56
2022-12-18T12:55:29.259Z,-4.56
2022-12-18T12:58:01.241Z,-4.60
2022-12-18T13:00:45.651Z,-4.59
2022-12-18T13:03:48.769Z,-4.55
2022-12-18T13:06:54.457Z,-4.57
2022-12-18T13:09:23.967Z,-4.60
2022-12-18T13:12:11.096Z,-4.61
2022-12-18T13:14:42.059Z,-4.67
2022-12-18T13:17:22.670Z,-4.79
2022-12-18T13:20:13.195Z,-4.93
2022-12-18T13:22:47.319Z,-5.03
2022-12-18T13:25:33.184Z,-5.03
2022-12-18T13:28:10.197Z,-5.06
2022-12-18T13:34:29.408Z,-5.10
2022-12-18T13:37:33.186Z,-5.16
2022-12-18T13:40:01.729Z,-5.18
2022-12-18T13:42:58.917Z,-5.23
2022-12-18T13:45:40.448Z,-5.24
2022-12-18T13:48:18.704Z,-5.22
2022-12-18T13:50:56.482Z,-5.27
2022-12-18T13:53:30.126Z,-5.29
2022-12-18T13:56:03.547Z,-5.41
2022-12-18T13:58:32.353Z,-5.46
2022-12-18T14:01:26.271Z,-5.49
2022-12-18T14:04:11.543Z,-5.56
2022-12-18T14:06:40.884Z,-5.67
2022-12-18T14:09:16.588Z,-5.80
2022-12-18T14:11:50.722Z,-5.91
2022-12-18T14:14:20.898Z,-5.94
2022-12-18T14:16:50.111Z,-6.00
2022-12-18T14:19:19.754Z,-6.06
2022-12-18T14:21:50.945Z,-6.09
2022-12-18T14:24:22.388Z,-6.08
2022-12-18T14:26:52.108Z,-6.06
2022-12-18T14:29:31.731Z,-6.08
2022-12-18T14:32:20.692Z,-6.12
2022-12-18T14:34:57.529Z,-6.18
2022-12-18T14:37:28.597Z,-6.26
2022-12-18T14:40:10.468Z,-6.29
2022-12-18T14:42:40.351Z,-6.33
2022-12-18T14:45:42.351Z,-6.34
2022-12-18T14:48:23.411Z,-6.30
2022-12-18T14:51:22.744Z,-6.28
2022-12-18T14:54:03.310Z,-6.22
2022-12-18T14:56:35.731Z,-6.17
2022-12-18T14:59:09.052Z,-6.17
2022-12-18T15:01:41.139Z,-6.17
2022-12-18T15:04:29.869Z,-6.16
2022-12-18T15:07:17.670Z,-6.18
2022-12-18T15:10:13.856Z,-6.15
2022-12-18T15:13:11.110Z,-6.16
2022-12-18T15:15:46.361Z,-6.17
2022-12-18T15:18:24.706Z,-6.18
2022-12-18T15:21:03.411Z,-6.20
2022-12-18T15:23:53.356Z,-6.26
2022-12-18T15:26:24.230Z,-6.34
2022-12-18T15:29:01.717Z,-6.41
2022-12-18T15:31:34.232Z,-6.47
2022-12-18T15:34:10.203Z,-6.52
2022-12-18T15:36:39.801Z,-6.60
2022-12-18T15:39:13.573Z,-6.62
2022-12-18T15:42:02.569Z,-6.65
2022-12-18T15:44:32.869Z,-6.69
2022-12-18T15:47:02.914Z,-6.70
2022-12-18T15:49:32.880Z,-6.74
2022-12-18T15:52:05.267Z,-6.78
2022-12-18T15:54:56.979Z,-6.82
2022-12-18T15:57:29.132Z,-6.83
2022-12-18T16:00:00.082Z,-6.83
2022-12-18T16:02:30.630Z,-6.85
2022-12-18T16:05:05.335Z,-6.91
2022-12-18T16:07:34.975Z,-6.94
2022-12-18T16:10:06.239Z,-6.99
2022-12-18T16:12:35.668Z,-7.00
2022-12-18T16:15:11.805Z,-7.02
2022-12-18T16:17:41.082Z,-7.03
2022-12-18T16:20:22.761Z,-7.04
2022-12-18T16:22:54.916Z,-7.05
2022-12-18T16:25:30.570Z,-7.09
2022-12-18T16:28:04.563Z,-7.13
2022-12-18T16:30:37.981Z,-7.19
2022-12-18T16:33:08.649Z,-7.21
2022-12-18T16:35:38.419Z,-7.20
2022-12-18T16:38:10.847Z,-7.25
2022-12-18T16:41:04.427Z,-7.29
2022-12-18T16:43:34.565Z,-7.32
2022-12-18T16:46:04.916Z,-7.32
2022-12-18T16:48:36.538Z,-7.30
2022-12-18T16:51:07.127Z,-7.26
2022-12-18T16:53:38.810Z,-7.26
2022-12-18T16:56:09.108Z,-7.26
2022-12-18T16:58:40.891Z,-7.29
2022-12-18T17:01:13.119Z,-7.34
2022-12-18T17:03:43.317Z,-7.39
2022-12-18T17:06:14.702Z,-7.40
2022-12-18T17:08:47.425Z,-7.40
2022-12-18T17:11:17.599Z,-7.41
2022-12-18T17:13:49.381Z,-7.42
2022-12-18T17:16:20.560Z,-7.44
2022-12-18T17:18:51.352Z,-7.44
2022-12-18T17:21:21.541Z,-7.42
2022-12-18T17:23:51.025Z,-7.40
2022-12-18T17:26:21.417Z,-7.41
2022-12-18T17:28:53.773Z,-7.47
2022-12-18T17:31:24.588Z,-7.51
2022-12-18T17:33:56.168Z,-7.52
2022-12-18T17:36:29.762Z,-7.51
2022-12-18T17:39:07.204Z,-7.49
2022-12-18T17:41:37.405Z,-7.48
2022-12-18T17:44:08.244Z,-7.47
2022-12-18T17:46:37.761Z,-7.45
2022-12-18T17:49:10.401Z,-7.43
2022-12-18T17:51:43.242Z,-7.44
2022-12-18T17:54:13.228Z,-7.46
2022-12-18T17:56:43.191Z,-7.50
2022-12-18T17:59:15.197Z,-7.52
2022-12-18T18:01:46.507Z,-7.53
2022-12-18T18:04:16.263Z,-7.56
2022-12-18T18:06:46.199Z,-7.57
2022-12-18T18:09:16.930Z,-7.53
2022-12-18T18:12:06.079Z,-7.52
2022-12-18T18:14:38.650Z,-7.52
2022-12-18T18:17:09.351Z,-7.54
2022-12-18T18:19:40.216Z,-7.56
2022-12-18T18:22:11.226Z,-7.57
2022-12-18T18:24:41.573Z,-7.58
2022-12-18T18:27:11.703Z,-7.59
2022-12-18T18:29:41.930Z,-7.61
2022-12-18T18:32:11.657Z,-7.59
2022-12-18T18:34:41.949Z,-7.56
2022-12-18T18:37:12.519Z,-7.55
2022-12-18T18:39:42.573Z,-7.59
2022-12-18T18:42:13.431Z,-7.61
2022-12-18T18:44:48.560Z,-7.62
2022-12-18T18:47:21.761Z,-7.64
2022-12-18T18:49:53.110Z,-7.67
2022-12-18T18:52:24.880Z,-7.71
2022-12-18T18:55:12.109Z,-7.76
2022-12-18T18:57:43.528Z,-7.82
2022-12-18T19:00:25.440Z,-7.86
2022-12-18T19:03:00.478Z,-7.90
2022-12-18T19:05:35.803Z,-7.91
2022-12-18T19:08:07.302Z,-7.93
2022-12-18T19:10:42.152Z,-7.97
2022-12-18T19:13:23.223Z,-7.99
2022-12-18T19:15:54.965Z,-8.02
2022-12-18T19:18:24.483Z,-8.04
2022-12-18T19:21:03.099Z,-8.07
2022-12-18T19:23:37.320Z,-8.10
2022-12-18T19:26:28.959Z,-8.11
2022-12-18T19:29:03.312Z,-8.10
2022-12-18T19:31:36.656Z,-8.09
2022-12-18T19:34:07.621Z,-8.10
2022-12-18T19:36:41.536Z,-8.07
2022-12-18T19:39:14.304Z,-8.04
2022-12-18T19:41:45.161Z,-8.01
2022-12-18T19:44:17.374Z,-8.00
2022-12-18T19:46:51.841Z,-7.99
2022-12-18T19:49:21.299Z,-7.99
2022-12-18T19:51:55.872Z,-7.99
2022-12-18T19:54:25.721Z,-7.99
2022-12-18T19:56:56.608Z,-7.99
2022-12-18T19:59:28.900Z,-8.00
2022-12-18T20:01:59.048Z,-8.01
2022-12-18T20:04:29.094Z,-8.02
2022-12-18T20:06:58.956Z,-8.02
2022-12-18T20:09:28.158Z,-8.03
2022-12-18T20:12:00.500Z,-8.04
2022-12-18T20:14:30.145Z,-8.02
2022-12-18T20:17:00.512Z,-8.02
2022-12-18T20:19:31.214Z,-8.03
2022-12-18T20:22:01.377Z,-8.04
2022-12-18T20:24:31.785Z,-8.06
2022-12-18T20:27:04.308Z,-8.08
2022-12-18T20:29:36.708Z,-8.11
2022-12-18T20:32:07.575Z,-8.13
2022-12-18T20:34:37.682Z,-8.14
2022-12-18T20:37:09.305Z,-8.15
2022-12-18T20:39:39.842Z,-8.13
2022-12-18T20:42:12.006Z,-8.13
2022-12-18T20:44:40.845Z,-8.13
2022-12-18T20:47:09.495Z,-8.13
2022-12-18T20:49:44.858Z,-8.13
2022-12-18T20:52:15.553Z,-8.13
2022-12-18T20:54:46.274Z,-8.11
2022-12-18T20:57:15.489Z,-8.10
2022-12-18T20:59:48.181Z,-8.07
2022-12-18T21:02:22.278Z,-8.06
2022-12-18T21:04:51.603Z,-8.04
2022-12-18T21:07:20.783Z,-8.03
2022-12-18T21:09:49.354Z,-8.02
2022-12-18T21:12:42.633Z,-8.01
2022-12-18T21:15:14.450Z,-8.00
2022-12-18T21:17:45.086Z,-8.00
2022-12-18T21:20:18.151Z,-7.99
2022-12-18T21:22:49.723Z,-7.97
2022-12-18T21:25:18.353Z,-7.95
2022-12-18T21:27:46.919Z,-7.92
2022-12-18T21:30:15.455Z,-7.89
2022-12-18T21:32:44.396Z,-7.89
2022-12-18T21:35:13.311Z,-7.88
2022-12-18T21:37:41.892Z,-7.88
2022-12-18T21:40:10.852Z,-7.86
2022-12-18T21:42:58.031Z,-7.86
2022-12-18T21:45:26.551Z,-7.87
2022-12-18T21:47:54.982Z,-7.85
2022-12-18T21:50:23.513Z,-7.84
2022-12-18T21:52:51.972Z,-7.82
2022-12-18T21:55:20.370Z,-7.81
2022-12-18T21:57:49.458Z,-7.80
2022-12-18T22:00:19.652Z,-7.77
2022-12-18T22:03:17.174Z,-7.76
2022-12-18T22:05:39.168Z,-7.75
2022-12-18T22:08:08.134Z,-7.74
2022-12-18T22:10:38.513Z,-7.74
2022-12-18T22:13:08.307Z,-7.73
2022-12-18T22:15:36.793Z,-7.71
2022-12-18T22:18:05.467Z,-7.72
2022-12-18T22:20:33.897Z,-7.72
2022-12-18T22:23:05.696Z,-7.72
2022-12-18T22:25:37.277Z,-7.73
2022-12-18T22:28:27.067Z,-7.74
2022-12-18T22:30:59.607Z,-7.73
2022-12-18T22:33:28.833Z,-7.72
2022-12-18T22:35:57.656Z,-7.73
2022-12-18T22:38:26.618Z,-7.75
2022-12-18T22:40:55.392Z,-7.75
2022-12-18T22:43:24.198Z,-7.76
2022-12-18T22:45:52.621Z,-7.77
2022-12-18T22:48:21.551Z,-7.79
2022-12-18T22:50:50.029Z,-7.79
2022-12-18T22:53:19.593Z,-7.81
2022-12-18T22:55:48.013Z,-7.82
2022-12-18T22:58:16.506Z,-7.83
2022-12-18T23:00:45.020Z,-7.85
2022-12-18T23:03:13.504Z,-7.88
2022-12-18T23:05:41.992Z,-7.90
2022-12-18T23:08:10.476Z,-7.92
2022-12-18T23:10:39.379Z,-7.94
2022-12-18T23:13:07.955Z,-7.98
2022-12-18T23:15:42.878Z,-7.99
2022-12-18T23:18:11.964Z,-8.01
2022-12-18T23:20:40.511Z,-8.05
2022-12-18T23:23:10.196Z,-8.05
2022-12-18T23:25:38.687Z,-8.07
2022-12-18T23:28:07.143Z,-8.08
2022-12-18T23:30:35.484Z,-8.09
2022-12-18T23:33:04.096Z,-8.10
2022-12-18T23:35:32.655Z,-8.12
2022-12-18T23:38:01.215Z,-8.13
2022-12-18T23:40:30.336Z,-8.14
2022-12-18T23:42:59.584Z,-8.15
2022-12-18T23:45:28.270Z,-8.14
2022-12-18T23:47:56.860Z,-8.16
2022-12-18T23:50:29.563Z,-8.19
2022-12-18T23:53:05.634Z,-8.21
2022-12-18T23:55:41.955Z,-8.22
2022-12-18T23:58:21.625Z,-8.25
